Time;durP1;ratioP1;P1;durP2;ratioP2;P2;SDS_P1;SDS_P2;PMS_P1;PMS_P2;Temp;Humidity;BMP_temperature;BMP_pressure;BME280_temperature;BME280_humidity;BME280_pressure;Samples;Min_cycle;Max_cycle;Signal;HPM_P1;HPM_P2
2023/07/04 00:01:09;;;;;;;;;;;;;;;13.71;82.65;101000.69;5039373;28;1226;-73
2023/07/04 00:03:35;;;;;;;;;;;;;;;13.69;82.80;100998.22;5039521;28;1343;-73
2023/07/04 00:06:01;;;;;;;;;;;;;;;13.63;83.74;100998.78;5029966;28;1854;-73
2023/07/04 00:08:26;;;;;;;;;;;;;;;13.61;83.67;100990.28;5038307;28;1898;-73
2023/07/04 00:10:52;;;;;;;;;;;;;;;13.58;83.39;100990.56;5037785;28;1289;-73
2023/07/04 00:13:18;;;;;;;;;;;;;;;13.54;83.91;100989.22;5035865;28;1718;-73
2023/07/04 00:15:50;;;;;;;;;;;;;;;13.53;84.06;100977.13;5029774;28;1558;-73
2023/07/04 00:18:17;;;;;;;;;;;;;;;13.52;83.72;100975.47;5027977;28;1951;-72
2023/07/04 00:20:42;;;;;;;;;;;;;;;13.47;83.90;100978.50;5036798;28;1202;-72
2023/07/04 00:23:07;;;;;;;;;;;;;;;13.48;83.80;100984.56;5034659;28;1406;-72
2023/07/04 00:25:34;;;;;;;;;;;;;;;13.47;84.09;100977.69;5031894;28;1747;-72
2023/07/04 00:28:04;;;;;;;;;;;;;;;13.42;84.29;100979.88;5035157;28;1275;-72
2023/07/04 00:30:29;;;;;;;;;;;;;;;13.36;84.19;100980.44;5025493;28;1321;-72
2023/07/04 00:32:54;;;;;;;;;;;;;;;13.33;84.30;100965.09;5034393;28;1607;-72
2023/07/04 00:35:19;;;;;;;;;;;;;;;13.33;84.84;100971.13;5027226;28;1225;-72
2023/07/04 00:37:45;;;;;;;;;;;;;;;13.32;84.54;100974.72;5026225;28;1378;-72
2023/07/04 00:40:12;;;;;;;;;;;;;;;13.35;84.46;100978.81;5031348;28;1966;-72
2023/07/04 00:42:38;;;;;;;;;;;;;;;13.38;84.96;100983.75;5028360;28;1448;-72
2023/07/04 00:45:20;;;;;;;;;;;;;;;13.35;84.72;100973.59;5029951;28;1482;-72
2023/07/04 00:47:53;;;;;;;;;;;;;;;13.37;84.92;100971.69;5025805;28;1221;-72
2023/07/04 00:50:19;;;;;;;;;;;;;;;13.43;85.08;100981.56;5026129;28;1245;-72
2023/07/04 00:52:45;;;;;;;;;;;;;;;13.46;85.42;100976.03;5028187;28;1307;-72
2023/07/04 00:55:11;;;;;;;;;;;;;;;13.52;85.13;100959.84;5028418;28;1224;-72
2023/07/04 00:57:37;;;;;;;;;;;;;;;13.56;85.77;100956.00;5029059;28;1261;-72
2023/07/04 01:00:17;;;;;;;;;;;;;;;13.64;85.68;100953.50;5027662;28;1898;-72
2023/07/04 01:02:45;;;;;;;;;;;;;;;13.66;85.80;100946.38;5027141;28;1729;-72
2023/07/04 01:05:11;;;;;;;;;;;;;;;13.72;85.33;100958.03;5034137;28;1251;-72
2023/07/04 01:07:45;;;;;;;;;;;;;;;13.75;85.39;100973.38;5030273;28;1261;-72
2023/07/04 01:10:17;;;;;;;;;;;;;;;13.72;85.86;100997.94;5031991;28;1262;-72
2023/07/04 01:12:42;;;;;;;;;;;;;;;13.69;85.95;101023.47;5026775;28;1205;-72
2023/07/04 01:15:08;;;;;;;;;;;;;;;13.60;87.60;101003.47;5032592;28;1264;-72
2023/07/04 01:17:33;;;;;;;;;;;;;;;13.59;86.75;100997.44;5030047;28;1013;-72
2023/07/04 01:20:01;;;;;;;;;;;;;;;13.60;86.87;100995.66;5027190;28;1968;-72
2023/07/04 01:22:40;;;;;;;;;;;;;;;13.65;86.81;101012.50;5026845;28;1225;-72
2023/07/04 01:25:09;;;;;;;;;;;;;;;13.66;86.97;101024.56;5029095;28;1210;-72
2023/07/04 01:27:36;;;;;;;;;;;;;;;13.67;87.37;101015.78;5031807;28;1468;-72
2023/07/04 01:30:04;;;;;;;;;;;;;;;13.67;87.08;101010.56;5023725;28;1435;-72
2023/07/04 01:32:30;;;;;;;;;;;;;;;13.63;88.10;101004.00;5028023;28;914;-72
2023/07/04 01:34:58;;;;;;;;;;;;;;;13.60;87.80;101003.47;5027648;28;1281;-72
2023/07/04 01:37:24;;;;;;;;;;;;;;;13.58;87.42;101000.97;5027795;28;1125;-72
2023/07/04 01:39:49;;;;;;;;;;;;;;;13.60;87.84;100993.88;5022063;28;1890;-72
2023/07/04 01:42:14;;;;;;;;;;;;;;;13.65;87.50;101006.44;5024076;28;1236;-72
2023/07/04 01:44:39;;;;;;;;;;;;;;;13.64;87.97;101003.03;5032830;28;1506;-72
2023/07/04 01:47:06;;;;;;;;;;;;;;;13.65;88.17;101002.09;5026779;28;1350;-72
2023/07/04 01:49:32;;;;;;;;;;;;;;;13.63;87.91;101004.00;5026779;28;1473;-72
2023/07/04 01:51:58;;;;;;;;;;;;;;;13.61;88.31;101000.72;5022894;28;1064;-72
2023/07/04 01:54:23;;;;;;;;;;;;;;;13.59;88.34;101000.03;5026331;28;1261;-72
2023/07/04 01:56:51;;;;;;;;;;;;;;;13.60;88.53;101009.50;5024575;28;1072;-73
2023/07/04 01:59:16;;;;;;;;;;;;;;;13.53;88.72;101011.00;5026482;28;1915;-73
2023/07/04 02:01:41;;;;;;;;;;;;;;;13.53;89.19;101008.38;5030670;28;1253;-73
2023/07/04 02:04:06;;;;;;;;;;;;;;;13.49;89.00;100996.63;5028845;28;1489;-73
2023/07/04 02:06:31;;;;;;;;;;;;;;;13.47;88.97;100996.75;5014440;28;1552;-73
2023/07/04 02:08:57;;;;;;;;;;;;;;;13.46;88.91;100986.47;5035468;28;1040;-73
2023/07/04 02:11:22;;;;;;;;;;;;;;;13.45;88.74;100984.84;5039788;28;1415;-72
2023/07/04 02:13:47;;;;;;;;;;;;;;;13.44;88.94;100983.19;5029808;28;1578;-73
2023/07/04 02:16:12;;;;;;;;;;;;;;;13.43;89.05;100986.75;5026005;28;1365;-72
2023/07/04 02:18:37;;;;;;;;;;;;;;;13.40;88.91;100982.63;5035011;28;1898;-73
2023/07/04 02:21:03;;;;;;;;;;;;;;;13.38;89.17;100978.53;5034864;28;1204;-73
2023/07/04 02:23:28;;;;;;;;;;;;;;;13.39;88.65;100974.97;5026377;28;1272;-73
2023/07/04 02:25:53;;;;;;;;;;;;;;;13.37;88.94;100989.94;5026809;28;1250;-73
2023/07/04 02:28:19;;;;;;;;;;;;;;;13.31;89.00;100980.06;5024756;28;1221;-73
2023/07/04 02:30:54;;;;;;;;;;;;;;;13.29;89.26;100981.00;5029424;28;1367;-73
2023/07/04 02:33:19;;;;;;;;;;;;;;;13.26;89.15;100989.09;5029216;28;1473;-73
2023/07/04 02:35:47;;;;;;;;;;;;;;;13.25;88.94;100984.88;5033223;28;1209;-73
2023/07/04 02:38:13;;;;;;;;;;;;;;;13.23;89.16;100986.75;5026372;28;1906;-73
2023/07/04 02:40:42;;;;;;;;;;;;;;;13.20;89.30;100979.22;5029665;28;1248;-73
2023/07/04 02:43:08;;;;;;;;;;;;;;;13.22;89.22;100992.13;5025822;28;1315;-73
2023/07/04 02:45:33;;;;;;;;;;;;;;;13.21;89.57;100986.09;5029389;28;1272;-73
2023/07/04 02:47:58;;;;;;;;;;;;;;;13.21;89.03;100983.50;5023742;28;1600;-72
2023/07/04 02:50:23;;;;;;;;;;;;;;;13.22;89.49;100984.31;5023089;28;1257;-72
2023/07/04 02:52:48;;;;;;;;;;;;;;;13.22;89.57;100981.72;5024775;28;1229;-72
2023/07/04 02:55:13;;;;;;;;;;;;;;;13.20;89.69;100984.44;5031003;28;1204;-72
2023/07/04 02:57:39;;;;;;;;;;;;;;;13.19;89.50;100980.19;5028674;28;1508;-73
2023/07/04 03:00:05;;;;;;;;;;;;;;;13.20;89.72;100981.81;5029207;28;1926;-72
2023/07/04 03:02:30;;;;;;;;;;;;;;;13.21;89.72;100977.47;5024336;28;1292;-73
2023/07/04 03:04:57;;;;;;;;;;;;;;;13.22;89.53;100974.72;5025838;28;1256;-73
2023/07/04 03:07:22;;;;;;;;;;;;;;;13.19;89.50;100969.75;5025355;28;1411;-73
2023/07/04 03:09:47;;;;;;;;;;;;;;;13.19;89.61;100969.75;5020684;28;1257;-73
2023/07/04 03:12:12;;;;;;;;;;;;;;;13.19;89.56;100980.19;5025022;28;1527;-73
2023/07/04 03:14:37;;;;;;;;;;;;;;;13.20;89.92;100979.22;5018775;28;1361;-73
2023/07/04 03:17:03;;;;;;;;;;;;;;;13.22;90.00;100979.91;5038369;28;1569;-73
2023/07/04 03:19:28;;;;;;;;;;;;;;;13.21;90.09;100986.09;5033311;28;1967;-73
2023/07/04 03:21:53;;;;;;;;;;;;;;;13.20;89.95;100979.22;5030483;28;1242;-73
2023/07/04 03:24:20;;;;;;;;;;;;;;;13.23;89.76;100988.56;5027686;28;1605;-73
2023/07/04 03:26:45;;;;;;;;;;;;;;;13.24;89.83;100983.19;5046219;28;1173;-73
2023/07/04 03:29:11;;;;;;;;;;;;;;;13.29;89.97;100986.22;5023338;28;1249;-73
2023/07/04 03:31:36;;;;;;;;;;;;;;;13.33;90.24;100991.16;5023392;28;1352;-73
2023/07/04 03:34:01;;;;;;;;;;;;;;;13.32;90.20;100987.72;5023443;28;1599;-73
2023/07/04 03:36:26;;;;;;;;;;;;;;;13.35;90.29;100994.44;5026055;28;1284;-73
2023/07/04 03:38:51;;;;;;;;;;;;;;;13.35;89.72;100989.22;5028918;28;1973;-73
2023/07/04 03:41:17;;;;;;;;;;;;;;;13.32;89.92;100999.94;5021333;28;1389;-73
2023/07/04 03:43:42;;;;;;;;;;;;;;;13.28;90.31;100991.56;5020833;28;1264;-73
2023/07/04 03:46:07;;;;;;;;;;;;;;;13.26;90.38;100985.69;5031264;28;1236;-73
2023/07/04 03:48:33;;;;;;;;;;;;;;;13.25;90.92;100999.69;5030123;28;1149;-73
2023/07/04 03:50:58;;;;;;;;;;;;;;;13.24;90.66;100985.81;5032403;28;1489;-73
2023/07/04 03:53:24;;;;;;;;;;;;;;;13.25;90.93;100979.66;5034366;28;1269;-73
2023/07/04 03:55:50;;;;;;;;;;;;;;;13.24;90.76;100985.81;5032311;28;1037;-73
2023/07/04 03:58:17;;;;;;;;;;;;;;;13.24;90.83;100992.78;5031529;28;1894;-73
2023/07/04 04:00:44;;;;;;;;;;;;;;;13.24;91.12;100993.63;5033805;28;1358;-73
2023/07/04 04:03:09;;;;;;;;;;;;;;;13.25;91.00;100995.28;5028034;28;1708;-73
2023/07/04 04:05:35;;;;;;;;;;;;;;;13.23;91.17;100997.19;5034356;28;1475;-73
2023/07/04 04:08:00;;;;;;;;;;;;;;;13.22;91.13;101000.75;5031546;28;1134;-73
2023/07/04 04:10:25;;;;;;;;;;;;;;;13.22;91.25;100995.53;5032818;28;1544;-73
2023/07/04 04:12:50;;;;;;;;;;;;;;;13.21;91.25;100998.28;5029018;28;1366;-73
2023/07/04 04:15:15;;;;;;;;;;;;;;;13.20;91.40;100997.44;5034726;28;1221;-73
2023/07/04 04:17:41;;;;;;;;;;;;;;;13.22;91.53;100995.53;5026781;28;1430;-73
2023/07/04 04:20:06;;;;;;;;;;;;;;;13.20;91.76;100997.44;5035603;28;1993;-73
2023/07/04 04:22:32;;;;;;;;;;;;;;;13.20;92.00;100992.25;5030218;28;1432;-73
2023/07/04 04:24:57;;;;;;;;;;;;;;;13.22;91.85;100990.34;5030658;28;1401;-73
2023/07/04 04:27:26;;;;;;;;;;;;;;;13.22;92.06;100994.72;5034406;28;1331;-73
2023/07/04 04:29:51;;;;;;;;;;;;;;;13.23;91.86;100997.19;5034509;28;1263;-73
2023/07/04 04:32:16;;;;;;;;;;;;;;;13.24;91.79;101000.59;5033319;28;1196;-73
2023/07/04 04:34:42;;;;;;;;;;;;;;;13.25;91.80;101005.72;5035851;28;1186;-73
2023/07/04 04:37:07;;;;;;;;;;;;;;;13.26;91.98;101009.94;5035094;28;1446;-73
2023/07/04 04:39:32;;;;;;;;;;;;;;;13.28;91.84;101004.59;5038786;28;1898;-73
2023/07/04 04:41:58;;;;;;;;;;;;;;;13.28;92.53;101010.63;5034816;28;1588;-73
2023/07/04 04:44:24;;;;;;;;;;;;;;;13.28;92.58;101010.63;5027179;28;1196;-73
2023/07/04 04:46:49;;;;;;;;;;;;;;;13.30;92.24;101013.09;5028189;28;1349;-73
2023/07/04 04:49:17;;;;;;;;;;;;;;;13.34;92.82;101018.84;5032294;28;1367;-73
2023/07/04 04:51:44;;;;;;;;;;;;;;;13.38;93.05;101020.22;5030857;28;1162;-73
2023/07/04 04:54:09;;;;;;;;;;;;;;;13.40;92.94;101018.28;5031424;28;1298;-72
2023/07/04 04:56:34;;;;;;;;;;;;;;;13.45;93.28;101022.13;5043786;28;1452;-73
2023/07/04 04:59:00;;;;;;;;;;;;;;;13.50;93.51;101030.34;5024671;28;1965;-72
2023/07/04 05:01:25;;;;;;;;;;;;;;;13.55;93.15;101027.34;5031341;28;1222;-73
2023/07/04 05:03:54;;;;;;;;;;;;;;;13.61;93.25;101026.78;5022145;28;1525;-73
2023/07/04 05:06:20;;;;;;;;;;;;;;;13.65;93.06;101028.16;5021930;28;1240;-73
2023/07/04 05:08:46;;;;;;;;;;;;;;;13.67;93.07;101031.44;5029511;28;1134;-73
2023/07/04 05:11:11;;;;;;;;;;;;;;;13.66;93.53;101029.78;5027260;28;1488;-73
2023/07/04 05:13:38;;;;;;;;;;;;;;;13.69;93.64;101029.50;5029967;28;1267;-73
2023/07/04 05:16:11;;;;;;;;;;;;;;;13.72;93.37;101024.00;5022139;28;1523;-73
2023/07/04 05:18:37;;;;;;;;;;;;;;;13.76;93.38;101029.75;5022347;28;1996;-73
2023/07/04 05:21:03;;;;;;;;;;;;;;;13.77;93.51;101026.19;5030959;28;1275;-73
2023/07/04 05:23:32;;;;;;;;;;;;;;;13.77;93.55;101037.44;5025966;28;1496;-73
2023/07/04 05:26:18;;;;;;;;;;;;;;;13.78;93.35;101039.09;5037550;28;1204;-73
2023/07/04 05:28:43;;;;;;;;;;;;;;;13.79;93.27;101039.91;5024580;28;1515;-73
2023/07/04 05:31:09;;;;;;;;;;;;;;;13.81;93.73;101041.41;5035173;28;1071;-73
2023/07/04 05:33:34;;;;;;;;;;;;;;;13.85;93.68;101033.31;5029174;28;1376;-73
2023/07/04 05:36:20;;;;;;;;;;;;;;;13.90;93.83;101038.94;5031697;28;1236;-73
2023/07/04 05:38:52;;;;;;;;;;;;;;;13.95;93.66;101036.72;5030857;28;1964;-73
2023/07/04 05:41:18;;;;;;;;;;;;;;;13.97;94.00;101032.16;5027247;28;1244;-73
2023/07/04 05:43:44;;;;;;;;;;;;;;;13.97;93.51;101032.16;5026150;28;1169;-73
2023/07/04 05:46:10;;;;;;;;;;;;;;;14.01;93.40;101038.75;5019784;28;2118;-73
2023/07/04 05:48:36;;;;;;;;;;;;;;;14.04;93.53;101038.47;5026334;28;1464;-73
2023/07/04 05:51:03;;;;;;;;;;;;;;;14.08;93.08;101042.44;5026889;28;1273;-72
2023/07/04 05:53:29;;;;;;;;;;;;;;;14.13;93.85;101042.84;5029511;28;1240;-72
2023/07/04 05:56:08;;;;;;;;;;;;;;;14.17;93.92;101052.03;5024166;28;1236;-72
2023/07/04 05:58:34;;;;;;;;;;;;;;;14.24;93.83;101050.47;5027097;28;1890;-72
2023/07/04 06:01:22;;;;;;;;;;;;;;;14.33;93.53;101049.59;5020345;28;1248;-72
2023/07/04 06:03:48;;;;;;;;;;;;;;;14.44;93.79;101050.38;5016214;28;1386;-72
2023/07/04 06:06:19;;;;;;;;;;;;;;;14.52;94.32;101048.75;5023658;28;1441;-73
2023/07/04 06:08:44;;;;;;;;;;;;;;;14.60;93.97;101045.41;5024066;28;1322;-73
2023/07/04 06:11:10;;;;;;;;;;;;;;;14.63;94.06;101066.00;5027390;28;1193;-73
2023/07/04 06:13:35;;;;;;;;;;;;;;;14.63;93.43;101059.97;5026589;28;1164;-73
2023/07/04 06:16:02;;;;;;;;;;;;;;;14.64;93.34;101056.38;5019019;28;1526;-73
2023/07/04 06:18:27;;;;;;;;;;;;;;;14.62;93.47;101064.34;5023403;28;2021;-73
2023/07/04 06:20:52;;;;;;;;;;;;;;;14.65;93.76;101064.06;5026247;28;1688;-73
2023/07/04 06:23:19;;;;;;;;;;;;;;;14.72;93.41;101065.09;5015381;28;1450;-73
2023/07/04 06:25:44;;;;;;;;;;;;;;;14.79;93.90;101066.16;5037581;28;1158;-73
2023/07/04 06:28:09;;;;;;;;;;;;;;;14.88;93.29;101065.28;5029101;28;1297;-73
2023/07/04 06:30:38;;;;;;;;;;;;;;;14.96;93.41;101072.38;5024938;28;1400;-73
2023/07/04 06:33:03;;;;;;;;;;;;;;;15.04;93.44;101069.06;5020063;28;1360;-73
2023/07/04 06:35:29;;;;;;;;;;;;;;;15.11;93.06;101075.31;5034742;28;1570;-73
2023/07/04 06:37:54;;;;;;;;;;;;;;;15.14;93.15;101073.25;5030186;28;1525;-73
2023/07/04 06:40:19;;;;;;;;;;;;;;;15.17;93.07;101079.94;5029431;28;1906;-73
2023/07/04 06:42:45;;;;;;;;;;;;;;;15.22;92.82;101082.94;5027189;28;1347;-73
2023/07/04 06:45:10;;;;;;;;;;;;;;;15.29;92.87;101078.75;5031765;28;1232;-73
2023/07/04 06:47:35;;;;;;;;;;;;;;;15.34;92.30;101081.75;5027691;28;1269;-73
2023/07/04 06:50:00;;;;;;;;;;;;;;;15.40;92.10;101075.09;5029890;28;1250;-73
2023/07/04 06:52:26;;;;;;;;;;;;;;;15.45;92.19;101072.03;5025472;28;1231;-73
2023/07/04 06:54:51;;;;;;;;;;;;;;;15.51;92.15;101076.66;5029297;28;1241;-73
2023/07/04 06:57:17;;;;;;;;;;;;;;;15.57;91.78;101076.03;5027213;28;1189;-73
2023/07/04 06:59:44;;;;;;;;;;;;;;;15.62;91.61;101079.88;5027203;28;1985;-73
2023/07/04 07:02:10;;;;;;;;;;;;;;;15.65;90.92;101083.97;5024513;28;1217;-73
2023/07/04 07:04:35;;;;;;;;;;;;;;;15.65;90.55;101089.19;5026593;28;1244;-73
2023/07/04 07:07:00;;;;;;;;;;;;;;;15.69;90.51;101095.78;5023723;28;1491;-73
2023/07/04 07:09:26;;;;;;;;;;;;;;;15.75;90.65;101095.16;5025367;28;1240;-72
2023/07/04 07:11:52;;;;;;;;;;;;;;;15.79;90.53;101099.13;5023652;28;1200;-73
2023/07/04 07:14:17;;;;;;;;;;;;;;;15.86;90.56;101096.72;5029363;28;1256;-73
2023/07/04 07:16:42;;;;;;;;;;;;;;;15.92;89.79;101101.34;5023353;28;1400;-73
2023/07/04 07:19:07;;;;;;;;;;;;;;;15.98;89.45;101098.13;5028264;28;1898;-73
2023/07/04 07:21:32;;;;;;;;;;;;;;;16.05;89.10;101103.53;5027950;28;1526;-73
2023/07/04 07:23:59;;;;;;;;;;;;;;;16.12;88.65;101102.78;5030326;28;1526;-73
2023/07/04 07:26:25;;;;;;;;;;;;;;;16.22;88.54;101101.84;5025684;28;1510;-73
2023/07/04 07:28:50;;;;;;;;;;;;;;;16.34;87.09;101111.88;5021144;28;1219;-73
2023/07/04 07:31:18;;;;;;;;;;;;;;;16.42;86.78;101104.09;5028429;28;1319;-73
2023/07/04 07:33:48;;;;;;;;;;;;;;;16.46;86.42;101102.00;5030353;28;1227;-73
2023/07/04 07:36:15;;;;;;;;;;;;;;;16.55;86.26;101092.38;5026342;28;1280;-73
2023/07/04 07:38:40;;;;;;;;;;;;;;;16.62;85.21;101103.84;5029656;28;1998;-73
2023/07/04 07:41:05;;;;;;;;;;;;;;;16.69;85.14;101115.34;5027482;28;1217;-72
2023/07/04 07:43:31;;;;;;;;;;;;;;;16.73;84.72;101106.22;5032638;28;1418;-72
2023/07/04 07:45:56;;;;;;;;;;;;;;;16.76;84.27;101113.75;5023753;28;1453;-73
2023/07/04 07:48:21;;;;;;;;;;;;;;;16.73;83.65;101112.28;5024110;28;1507;-73
2023/07/04 07:50:46;;;;;;;;;;;;;;;16.75;82.67;101114.75;5028441;28;1324;-73
2023/07/04 07:53:13;;;;;;;;;;;;;;;16.71;82.63;101119.47;5025547;28;1421;-73
2023/07/04 07:55:38;;;;;;;;;;;;;;;16.67;82.29;101118.09;5024410;28;1387;-73
2023/07/04 07:58:03;;;;;;;;;;;;;;;16.67;82.00;101118.09;5022605;28;1243;-73
2023/07/04 08:00:29;;;;;;;;;;;;;;;16.74;81.51;101123.56;5025328;28;1971;-73
2023/07/04 08:02:54;;;;;;;;;;;;;;;16.85;81.38;101125.91;5024005;28;1332;-73
2023/07/04 08:05:19;;;;;;;;;;;;;;;16.99;81.00;101133.16;5021756;28;1432;-73
2023/07/04 08:07:44;;;;;;;;;;;;;;;17.03;80.00;101132.81;5027495;28;1224;-73
2023/07/04 08:10:09;;;;;;;;;;;;;;;17.07;80.41;101126.28;5028863;28;1197;-73
2023/07/04 08:12:35;;;;;;;;;;;;;;;17.06;78.40;101128.09;5030284;28;1197;-73
2023/07/04 08:15:00;;;;;;;;;;;;;;;17.03;78.66;101122.34;5023473;28;1291;-73
2023/07/04 08:17:25;;;;;;;;;;;;;;;17.05;78.73;101130.88;5028485;28;1406;-73
2023/07/04 08:19:51;;;;;;;;;;;;;;;16.98;76.04;101136.75;5029326;28;1898;-73
2023/07/04 08:22:16;;;;;;;;;;;;;;;16.99;78.21;101143.66;5023470;28;1259;-73
2023/07/04 08:24:41;;;;;;;;;;;;;;;17.01;77.72;101145.28;5024223;28;1468;-73
2023/07/04 08:27:06;;;;;;;;;;;;;;;17.01;77.45;101140.84;5026655;28;1458;-73
2023/07/04 08:29:32;;;;;;;;;;;;;;;17.03;76.59;101127.59;5025097;28;1431;-72
2023/07/04 08:31:58;;;;;;;;;;;;;;;17.03;76.93;101124.97;5022821;28;1235;-73
2023/07/04 08:34:24;;;;;;;;;;;;;;;17.03;76.21;101124.97;5029670;28;1342;-73
2023/07/04 08:36:49;;;;;;;;;;;;;;;17.02;76.11;101136.44;5037235;28;1591;-73
2023/07/04 08:39:14;;;;;;;;;;;;;;;17.01;75.66;101134.78;5033055;28;1969;-73
2023/07/04 08:41:42;;;;;;;;;;;;;;;17.03;75.27;101133.66;5030947;28;1197;-73
2023/07/04 08:44:07;;;;;;;;;;;;;;;17.08;75.12;101135.78;5025599;28;1431;-73
2023/07/04 08:46:35;;;;;;;;;;;;;;;17.17;75.56;101142.72;5029997;28;1366;-72
2023/07/04 08:49:01;;;;;;;;;;;;;;;17.26;75.20;101139.09;5030565;28;1535;-73
2023/07/04 08:51:35;;;;;;;;;;;;;;;17.33;75.08;101139.31;5027544;28;1361;-73
2023/07/04 08:54:02;;;;;;;;;;;;;;;17.39;74.23;101149.97;5025881;28;1252;-73
2023/07/04 08:56:31;;;;;;;;;;;;;;;17.35;73.81;101164.38;5024937;28;1461;-73
2023/07/04 09:04:07;;;;;;;;;;;;;;;17.44;72.88;101158.16;5011537;28;1951;-73
2023/07/04 09:06:51;;;;;;;;;;;;;;;17.52;73.01;101165.22;5011169;28;7083;-73
2023/07/04 09:09:36;;;;;;;;;;;;;;;17.59;72.54;101162.75;5000386;28;1325;-74
2023/07/04 09:12:02;;;;;;;;;;;;;;;17.58;71.70;101179.47;4976359;28;1329;-73
2023/07/04 09:14:38;;;;;;;;;;;;;;;17.60;71.46;101177.50;5007023;28;1094;-73
2023/07/04 09:17:12;;;;;;;;;;;;;;;17.62;70.74;101171.13;5012084;28;1243;-73
2023/07/04 09:19:39;;;;;;;;;;;;;;;17.58;70.83;101185.53;5013558;28;1918;-73
2023/07/04 09:22:06;;;;;;;;;;;;;;;17.65;71.51;101186.53;5021914;28;1413;-74
2023/07/04 09:24:31;;;;;;;;;;;;;;;17.84;71.09;101180.19;5007945;28;1322;-73
2023/07/04 09:26:56;;;;;;;;;;;;;;;18.00;70.86;101184.59;5018542;28;1675;-74
2023/07/04 09:29:24;;;;;;;;;;;;;;;18.12;69.98;101187.72;5009211;28;1285;-73
2023/07/04 09:31:54;;;;;;;;;;;;;;;18.27;69.91;101199.19;5013720;28;1288;-74
2023/07/04 09:34:22;;;;;;;;;;;;;;;18.35;68.97;101188.69;5006751;28;1462;-75
2023/07/04 09:36:47;;;;;;;;;;;;;;;18.36;68.81;101185.06;5004796;28;1401;-74
2023/07/04 09:39:13;;;;;;;;;;;;;;;18.42;68.07;101173.91;5007228;28;1906;-75
2023/07/04 09:41:40;;;;;;;;;;;;;;;18.43;68.53;101175.53;5008446;28;1121;-73
2023/07/04 09:44:11;;;;;;;;;;;;;;;18.55;67.46;101178.63;5006943;28;1407;-74
2023/07/04 09:46:37;;;;;;;;;;;;;;;18.60;66.09;101171.06;5009628;28;1107;-74
2023/07/04 09:49:41;;;;;;;;;;;;;;;18.67;66.24;101181.72;5003173;28;1284;-73
2023/07/04 09:52:23;;;;;;;;;;;;;;;18.83;66.36;101176.44;4923795;29;1276;-74
2023/07/04 09:55:09;;;;;;;;;;;;;;;18.98;66.49;101180.00;4927485;29;1299;-74
2023/07/04 09:57:34;;;;;;;;;;;;;;;19.15;64.77;101177.25;4993448;28;1341;-76
2023/07/04 10:00:19;;;;;;;;;;;;;;;19.22;62.78;101181.66;5010960;28;1967;-73
2023/07/04 10:02:46;;;;;;;;;;;;;;;19.21;63.37;101185.28;5008055;28;1228;-74
2023/07/04 10:05:21;;;;;;;;;;;;;;;19.25;63.10;101191.00;5007844;28;1474;-73
2023/07/04 10:07:58;;;;;;;;;;;;;;;19.33;62.29;101193.63;5005065;28;1229;-74
2023/07/04 10:10:23;;;;;;;;;;;;;;;19.39;60.76;101192.09;5002835;28;1531;-75
2023/07/04 10:12:48;;;;;;;;;;;;;;;19.41;61.13;101185.66;5016992;28;1406;-74
2023/07/04 10:15:24;;;;;;;;;;;;;;;19.43;61.07;101186.28;5018438;28;1390;-75
2023/07/04 10:17:49;;;;;;;;;;;;;;;19.54;61.16;101191.16;5021644;28;1405;-74
2023/07/04 10:20:15;;;;;;;;;;;;;;;19.68;60.37;101191.44;5012018;28;1961;-74
2023/07/04 10:22:42;;;;;;;;;;;;;;;19.72;60.15;101187.44;5010879;28;1256;-75
2023/07/04 10:25:11;;;;;;;;;;;;;;;19.74;60.22;101190.72;5007622;28;1389;-73
2023/07/04 10:27:37;;;;;;;;;;;;;;;19.83;59.14;101189.66;5009199;28;1683;-74
2023/07/04 10:30:15;;;;;;;;;;;;;;;19.82;60.20;101195.91;5011377;28;1630;-74
2023/07/04 10:32:47;;;;;;;;;;;;;;;19.95;58.97;101198.78;5006233;28;1559;-74
2023/07/04 10:35:14;;;;;;;;;;;;;;;19.96;58.78;101194.34;5007763;28;1238;-75
2023/07/04 10:37:41;;;;;;;;;;;;;;;19.91;57.93;101192.25;5011207;28;1180;-75
2023/07/04 10:40:12;;;;;;;;;;;;;;;19.94;58.59;101189.25;5007699;28;1965;-74
2023/07/04 10:42:48;;;;;;;;;;;;;;;20.12;56.69;101200.25;5006441;28;1380;-74
2023/07/04 10:45:14;;;;;;;;;;;;;;;20.09;56.58;101200.63;5007443;28;1331;-74
2023/07/04 10:47:41;;;;;;;;;;;;;;;20.19;57.66;101199.56;5011477;28;1314;-74
2023/07/04 10:50:20;;;;;;;;;;;;;;;20.31;56.06;101203.41;5004251;28;1213;-74
2023/07/04 10:52:48;;;;;;;;;;;;;;;20.23;56.49;101206.09;5009294;28;1480;-74
2023/07/04 10:55:15;;;;;;;;;;;;;;;20.14;55.52;101197.47;5003149;28;1394;-75
2023/07/04 10:57:44;;;;;;;;;;;;;;;19.99;54.01;101200.06;5011362;28;1366;-76
2023/07/04 11:00:31;;;;;;;;;;;;;;;19.91;54.53;101201.97;5008229;28;1981;-75
2023/07/04 11:03:00;;;;;;;;;;;;;;;19.97;55.16;101186.25;5000412;28;1484;-74
2023/07/04 11:05:33;;;;;;;;;;;;;;;20.12;54.04;101196.81;5003031;28;1527;-74
2023/07/04 11:07:59;;;;;;;;;;;;;;;20.09;54.77;101200.63;5002744;28;1185;-75
2023/07/04 11:10:24;;;;;;;;;;;;;;;20.16;55.10;101196.28;5001073;28;1320;-73
2023/07/04 11:12:52;;;;;;;;;;;;;;;20.25;54.98;101198.84;5007758;28;1273;-74
2023/07/04 11:15:30;;;;;;;;;;;;;;;20.36;55.11;101201.88;5014133;28;1364;-74
2023/07/04 11:17:55;;;;;;;;;;;;;;;20.50;54.50;101197.63;5012548;28;1344;-74
2023/07/04 11:20:22;;;;;;;;;;;;;;;20.47;54.59;101197.97;5010629;28;1910;-75
2023/07/04 11:22:51;;;;;;;;;;;;;;;20.44;54.35;101193.06;5013680;28;1217;-73
2023/07/04 11:25:25;;;;;;;;;;;;;;;20.44;53.73;101193.06;5006456;28;1231;-74
2023/07/04 11:28:10;;;;;;;;;;;;;;;20.48;53.99;101193.56;5015349;28;1364;-76
2023/07/04 11:30:39;;;;;;;;;;;;;;;20.50;52.53;101197.63;5022714;28;1432;-75
2023/07/04 11:33:07;;;;;;;;;;;;;;;20.32;52.88;101202.41;5011796;28;1346;-76
2023/07/04 11:35:32;;;;;;;;;;;;;;;20.20;53.51;101204.66;5009256;28;1133;-74
2023/07/04 11:38:05;;;;;;;;;;;;;;;20.08;52.52;101209.53;4997886;28;1026;-74
2023/07/04 11:40:51;;;;;;;;;;;;;;;20.03;52.45;101209.25;5010194;28;1968;-76
2023/07/04 11:43:42;;;;;;;;;;;;;;;20.03;53.60;101201.34;5003903;28;1475;-74
2023/07/04 11:46:07;;;;;;;;;;;;;;;20.15;53.25;101199.91;5007748;28;1161;-74
2023/07/04 11:48:34;;;;;;;;;;;;;;;20.35;53.73;101205.47;5000706;28;1251;-74
2023/07/04 11:51:04;;;;;;;;;;;;;;;20.59;54.58;101201.81;5007702;28;1675;-74
2023/07/04 11:53:35;;;;;;;;;;;;;;;20.83;54.79;101207.81;5009576;28;1306;-74
2023/07/04 11:56:18;;;;;;;;;;;;;;;21.00;53.24;101203.16;5003803;28;1206;-75
2023/07/04 11:58:45;;;;;;;;;;;;;;;21.13;52.07;101204.13;5004318;28;1922;-75
2023/07/04 12:01:10;;;;;;;;;;;;;;;21.09;52.23;101207.31;5000273;28;1216;-74
2023/07/04 12:03:45;;;;;;;;;;;;;;;21.14;52.96;101208.41;5004266;28;1373;-76
2023/07/04 12:06:31;;;;;;;;;;;;;;;21.26;51.76;101203.47;5001750;28;1372;-75
2023/07/04 12:08:56;;;;;;;;;;;;;;;21.21;52.15;101206.66;5012093;28;1352;-74
2023/07/04 12:11:38;;;;;;;;;;;;;;;21.27;52.99;101212.19;5007211;28;1370;-75
2023/07/04 12:14:04;;;;;;;;;;;;;;;21.43;52.10;101204.06;5007463;28;1546;-75
2023/07/04 12:16:30;;;;;;;;;;;;;;;21.50;51.86;101215.50;5021799;28;1589;-75
2023/07/04 12:18:56;;;;;;;;;;;;;;;21.46;51.51;101209.00;5016372;28;1954;-74
2023/07/04 12:21:22;;;;;;;;;;;;;;;21.46;50.44;101209.81;5016657;28;1324;-74
2023/07/04 12:23:48;;;;;;;;;;;;;;;21.29;49.98;101207.56;5011473;28;1178;-75
2023/07/04 12:26:18;;;;;;;;;;;;;;;21.25;51.15;101211.56;5017773;28;1387;-74
2023/07/04 12:28:45;;;;;;;;;;;;;;;21.19;50.88;101206.03;5006028;28;1294;-74
2023/07/04 12:31:10;;;;;;;;;;;;;;;21.14;50.57;101200.47;5007808;28;1626;-74
2023/07/04 12:33:40;;;;;;;;;;;;;;;21.06;51.98;101203.25;5015083;28;1212;-74
2023/07/04 12:36:09;;;;;;;;;;;;;;;21.15;51.31;101202.13;5001083;28;1324;-75
2023/07/04 12:38:40;;;;;;;;;;;;;;;21.21;52.30;101200.56;5005989;28;1894;-75
2023/07/04 12:41:06;;;;;;;;;;;;;;;21.38;52.32;101196.72;5016078;28;1260;-75
2023/07/04 12:43:32;;;;;;;;;;;;;;;21.55;51.97;101189.38;5015982;28;1363;-75
2023/07/04 12:46:10;;;;;;;;;;;;;;;21.70;51.89;101195.41;5018171;28;1464;-74
2023/07/04 12:48:36;;;;;;;;;;;;;;;21.91;50.92;101196.44;5019881;28;1440;-75
2023/07/04 12:51:02;;;;;;;;;;;;;;;21.91;51.23;101201.72;5024924;28;1089;-75
2023/07/04 12:53:28;;;;;;;;;;;;;;;21.92;49.34;101198.88;5016713;28;1172;-74
2023/07/04 12:55:54;;;;;;;;;;;;;;;21.95;50.84;101197.66;5012598;28;1192;-74